createdAt,value
2022-09-15T00:01:50.839Z,70.00
2022-09-15T00:04:55.727Z,69.96
2022-09-15T00:08:02.377Z,70.32
2022-09-15T00:11:24.125Z,70.17
2022-09-15T00:14:30.746Z,70.36
2022-09-15T00:17:38.905Z,70.16
2022-09-15T00:20:44.062Z,70.18
2022-09-15T00:23:50.821Z,70.66
2022-09-15T00:26:57.321Z,71.11
2022-09-15T00:29:57.731Z,71.36
2022-09-15T00:33:03.829Z,71.17
2022-09-15T00:36:08.678Z,71.45
2022-09-15T00:39:13.793Z,71.55
2022-09-15T00:42:12.809Z,71.53
2022-09-15T00:45:19.872Z,71.04
2022-09-15T00:48:29.772Z,71.02
2022-09-15T00:51:40.245Z,70.64
2022-09-15T00:55:02.761Z,70.50
2022-09-15T00:58:17.855Z,70.17
2022-09-15T01:01:23.441Z,70.19
2022-09-15T01:04:29.118Z,70.24
2022-09-15T01:07:42.724Z,70.07
2022-09-15T01:10:53.141Z,70.12
2022-09-15T01:13:59.879Z,70.41
2022-09-15T01:17:29.137Z,70.00
2022-09-15T01:20:55.009Z,69.80
2022-09-15T01:24:24.654Z,69.84
2022-09-15T01:28:24.960Z,69.63
2022-09-15T01:32:10.934Z,70.21
2022-09-15T01:35:57.725Z,70.23
2022-09-15T01:39:28.975Z,70.37
2022-09-15T01:42:34.863Z,70.47
2022-09-15T01:45:46.748Z,70.63
2022-09-15T01:48:52.237Z,70.31
2022-09-15T01:51:58.756Z,70.70
2022-09-15T01:55:15.620Z,70.83
2022-09-15T01:58:22.267Z,70.63
2022-09-15T02:01:48.474Z,70.64
2022-09-15T02:05:12.989Z,70.75
2022-09-15T02:08:29.077Z,70.45
2022-09-15T02:11:37.537Z,69.85
2022-09-15T02:15:03.358Z,70.14
2022-09-15T02:18:08.908Z,70.64
2022-09-15T02:21:22.801Z,70.68
2022-09-15T02:24:32.149Z,71.08
2022-09-15T02:27:38.983Z,71.27
2022-09-15T02:30:44.092Z,71.58
2022-09-15T02:33:51.150Z,71.49
2022-09-15T02:36:56.980Z,71.46
2022-09-15T02:40:06.441Z,71.80
2022-09-15T02:43:16.356Z,71.90
2022-09-15T02:46:15.489Z,72.89
2022-09-15T02:49:01.720Z,73.37
2022-09-15T02:51:54.096Z,72.66
2022-09-15T02:54:40.020Z,72.13
2022-09-15T02:57:35.198Z,72.69
2022-09-15T03:00:29.551Z,73.02
2022-09-15T03:03:33.628Z,73.24
2022-09-15T03:06:41.975Z,73.02
2022-09-15T03:09:48.817Z,73.08
2022-09-15T03:13:05.456Z,73.34
2022-09-15T03:16:04.399Z,73.13
2022-09-15T03:19:10.775Z,73.11
2022-09-15T03:22:16.229Z,73.45
2022-09-15T03:25:23.726Z,73.42
2022-09-15T03:28:30.372Z,73.39
2022-09-15T03:31:36.516Z,73.39
2022-09-15T03:34:41.980Z,73.33
2022-09-15T03:37:48.694Z,73.87
2022-09-15T03:40:46.821Z,73.79
2022-09-15T03:43:46.936Z,74.07
2022-09-15T03:46:53.667Z,74.35
2022-09-15T03:50:00.301Z,74.16
2022-09-15T03:53:06.774Z,74.01
2022-09-15T03:56:37.600Z,74.66
2022-09-15T03:59:43.329Z,74.41
2022-09-15T04:02:49.153Z,73.85
2022-09-15T04:05:56.025Z,73.52
2022-09-15T04:09:04.567Z,74.07
2022-09-15T04:12:10.765Z,74.26
2022-09-15T04:15:18.283Z,74.38
2022-09-15T04:18:25.104Z,75.03
2022-09-15T04:21:34.299Z,75.59
2022-09-15T04:24:39.826Z,74.80
2022-09-15T04:27:46.470Z,74.27
2022-09-15T04:30:45.807Z,74.35
2022-09-15T04:33:39.229Z,74.34
2022-09-15T04:36:44.301Z,74.52
2022-09-15T04:39:43.197Z,73.40
2022-09-15T04:42:50.821Z,72.82
2022-09-15T04:45:57.326Z,72.22
2022-09-15T04:49:04.055Z,71.77
2022-09-15T04:52:09.801Z,72.70
2022-09-15T04:55:15.366Z,72.46
2022-09-15T04:58:20.941Z,72.12
2022-09-15T05:01:31.252Z,71.69
2022-09-15T05:04:37.693Z,71.26
2022-09-15T05:07:44.842Z,70.50
2022-09-15T05:10:51.913Z,70.26
2022-09-15T05:13:58.070Z,70.19
2022-09-15T05:17:06.449Z,70.01
2022-09-15T05:20:15.174Z,70.26
2022-09-15T05:23:20.668Z,70.34
2022-09-15T05:26:34.223Z,69.16
2022-09-15T05:29:42.238Z,68.68
2022-09-15T05:33:01.009Z,67.68
2022-09-15T05:36:12.643Z,66.97
2022-09-15T05:39:28.807Z,65.87
2022-09-15T05:42:38.881Z,65.23
2022-09-15T05:45:45.017Z,63.50
2022-09-15T05:48:50.063Z,63.89
2022-09-15T05:51:55.699Z,63.93
2022-09-15T05:54:58.863Z,63.75
2022-09-15T05:58:02.082Z,63.75
2022-09-15T06:01:09.666Z,65.12
2022-09-15T06:04:16.431Z,64.73
2022-09-15T06:07:21.850Z,64.53
2022-09-15T06:10:27.247Z,64.40
2022-09-15T06:13:35.974Z,63.21
2022-09-15T06:16:47.777Z,62.20
2022-09-15T06:20:04.108Z,61.27
2022-09-15T06:23:12.161Z,62.25
2022-09-15T06:26:24.597Z,62.01
2022-09-15T06:29:30.095Z,61.78
2022-09-15T06:32:36.329Z,61.65
2022-09-15T06:35:35.626Z,60.65
2022-09-15T06:38:43.408Z,60.31
2022-09-15T06:42:02.333Z,60.57
2022-09-15T06:45:01.720Z,59.78
2022-09-15T06:48:24.011Z,59.66
2022-09-15T06:51:16.426Z,59.64
2022-09-15T06:54:23.037Z,57.98
2022-09-15T06:57:28.186Z,57.34
2022-09-15T07:00:34.743Z,58.07
2022-09-15T07:03:42.641Z,56.65
2022-09-15T07:06:47.530Z,57.25
2022-09-15T07:09:53.622Z,57.19
2022-09-15T07:12:58.654Z,56.85
2022-09-15T07:16:10.904Z,56.22
2022-09-15T07:19:15.375Z,54.76
2022-09-15T07:22:20.376Z,54.37
2022-09-15T07:25:30.617Z,53.59
2022-09-15T07:28:36.746Z,53.58
2022-09-15T07:31:44.806Z,51.55
2022-09-15T07:34:52.309Z,49.06
2022-09-15T07:37:58.966Z,50.06
2022-09-15T07:41:06.508Z,51.29
2022-09-15T07:44:13.080Z,50.46
2022-09-15T07:47:19.761Z,49.94
2022-09-15T07:50:25.634Z,49.59
2022-09-15T07:53:30.890Z,49.53
2022-09-15T07:56:37.229Z,50.26
2022-09-15T07:59:43.623Z,50.57
2022-09-15T08:02:49.148Z,51.76
2022-09-15T08:05:58.261Z,51.58
2022-09-15T08:09:04.658Z,52.35
2022-09-15T08:12:09.948Z,51.86
2022-09-15T08:15:16.696Z,51.96
2022-09-15T08:18:22.813Z,52.34
2022-09-15T08:21:30.034Z,52.68
2022-09-15T08:24:38.489Z,51.80
2022-09-15T08:27:43.929Z,52.23
2022-09-15T08:30:49.977Z,53.10
2022-09-15T08:33:56.803Z,53.34
2022-09-15T08:37:07.878Z,53.45
2022-09-15T08:40:13.158Z,53.06
2022-09-15T08:43:29.495Z,53.41
2022-09-15T08:46:41.243Z,53.60
2022-09-15T08:50:06.560Z,54.23
2022-09-15T08:53:40.374Z,54.72
2022-09-15T08:56:45.681Z,55.38
2022-09-15T08:59:51.626Z,55.02
2022-09-15T09:03:11.885Z,55.88
2022-09-15T09:06:26.945Z,56.57
2022-09-15T09:10:05.146Z,57.26
2022-09-15T09:13:54.932Z,57.14
2022-09-15T09:17:34.906Z,57.39
2022-09-15T09:20:50.409Z,57.95
2022-09-15T09:24:06.653Z,58.28
2022-09-15T09:27:12.629Z,57.95
2022-09-15T09:30:38.410Z,58.88
2022-09-15T09:33:59.772Z,58.51
2022-09-15T09:37:16.095Z,58.31
2022-09-15T09:40:24.761Z,59.02
2022-09-15T09:43:30.568Z,59.23
2022-09-15T09:46:37.073Z,58.57
2022-09-15T09:49:53.832Z,58.62
2022-09-15T09:53:00.474Z,59.29
2022-09-15T09:56:05.663Z,59.17
2022-09-15T09:59:12.342Z,58.91
2022-09-15T10:02:37.700Z,58.83
2022-09-15T10:05:42.813Z,58.84
2022-09-15T10:08:48.238Z,58.88
2022-09-15T10:12:15.812Z,59.70
2022-09-15T10:15:24.437Z,59.50
2022-09-15T10:18:38.659Z,58.91
2022-09-15T10:21:37.961Z,57.99
2022-09-15T10:24:50.885Z,57.29
2022-09-15T10:27:57.734Z,56.56
2022-09-15T10:31:22.723Z,56.49
2022-09-15T10:34:43.444Z,56.86
2022-09-15T10:38:06.487Z,56.89
2022-09-15T10:41:16.813Z,56.49
2022-09-15T10:44:50.472Z,57.01
2022-09-15T10:48:04.156Z,56.98
2022-09-15T10:51:24.875Z,57.04
2022-09-15T10:54:53.172Z,57.18
2022-09-15T10:58:21.910Z,58.03
2022-09-15T11:01:45.792Z,57.60
2022-09-15T11:05:22.037Z,57.65
2022-09-15T11:08:50.757Z,57.28
2022-09-15T11:12:13.356Z,57.03
2022-09-15T11:15:50.734Z,56.46
2022-09-15T11:19:29.661Z,57.48
2022-09-15T11:22:49.763Z,57.12
2022-09-15T11:26:04.120Z,56.01
2022-09-15T11:29:15.586Z,57.00
2022-09-15T11:32:20.971Z,56.41
2022-09-15T11:36:07.736Z,55.49
2022-09-15T11:39:36.077Z,55.06
2022-09-15T11:42:53.072Z,54.94
2022-09-15T11:46:03.728Z,54.97
2022-09-15T11:49:20.466Z,54.69
2022-09-15T11:52:49.399Z,53.54
2022-09-15T11:56:29.657Z,52.57
2022-09-15T11:59:46.029Z,51.02
2022-09-15T12:03:23.082Z,50.05
2022-09-15T12:06:32.757Z,49.51
2022-09-15T12:09:39.297Z,49.79
2022-09-15T12:12:45.090Z,49.89
2022-09-15T12:15:51.506Z,49.96
2022-09-15T12:19:19.555Z,50.04
2022-09-15T12:23:00.403Z,50.73
2022-09-15T12:26:36.865Z,50.98
2022-09-15T12:29:46.554Z,51.10
2022-09-15T12:32:54.398Z,51.58
2022-09-15T12:35:59.612Z,51.78
2022-09-15T12:39:05.379Z,52.02
2022-09-15T12:42:25.779Z,52.53
2022-09-15T12:45:41.284Z,53.06
2022-09-15T12:48:48.318Z,53.43
2022-09-15T12:51:54.846Z,53.58
2022-09-15T12:55:01.990Z,53.38
2022-09-15T12:58:14.526Z,53.17
2022-09-15T13:01:42.590Z,53.24
2022-09-15T13:05:00.667Z,53.58
2022-09-15T13:08:12.002Z,53.60
2022-09-15T13:11:46.717Z,52.79
2022-09-15T13:14:56.511Z,52.28
2022-09-15T13:18:01.500Z,52.35
2022-09-15T13:21:17.237Z,52.47
2022-09-15T13:24:24.980Z,52.39
2022-09-15T13:27:39.917Z,52.79
2022-09-15T13:30:52.009Z,52.96
2022-09-15T13:38:16.789Z,54.67
2022-09-15T13:41:42.530Z,55.10
2022-09-15T13:45:25.528Z,55.39
2022-09-15T13:49:01.957Z,56.11
2022-09-15T13:52:17.303Z,55.78
2022-09-15T13:55:39.858Z,55.92
2022-09-15T13:59:06.858Z,55.65
2022-09-15T14:01:52.980Z,55.34
2022-09-15T14:04:59.289Z,55.71
2022-09-15T14:08:23.235Z,56.11
2022-09-15T14:11:31.080Z,56.49
2022-09-15T14:15:07.765Z,56.12
2022-09-15T14:18:13.906Z,57.08
2022-09-15T14:21:20.615Z,56.32
2022-09-15T14:24:36.629Z,57.36
2022-09-15T14:27:44.728Z,56.79
2022-09-15T14:30:49.373Z,56.94
2022-09-15T14:33:56.165Z,56.67
2022-09-15T14:37:11.378Z,56.70
2022-09-15T14:40:19.750Z,57.37
2022-09-15T14:43:44.282Z,57.64
2022-09-15T14:46:54.102Z,57.51
2022-09-15T14:50:00.083Z,58.48
2022-09-15T14:53:20.558Z,58.62
2022-09-15T14:56:36.541Z,58.57
2022-09-15T14:59:53.392Z,58.73
2022-09-15T15:03:17.624Z,59.45
2022-09-15T15:06:45.206Z,59.42
2022-09-15T15:10:09.850Z,60.27
2022-09-15T15:13:28.538Z,60.64
2022-09-15T15:16:41.284Z,61.65
2022-09-15T15:19:53.408Z,61.91
2022-09-15T15:22:58.979Z,62.67
2022-09-15T15:26:05.000Z,63.90
2022-09-15T15:29:12.224Z,64.42
2022-09-15T15:32:26.751Z,64.21
2022-09-15T15:35:32.516Z,65.01
2022-09-15T15:38:38.386Z,65.17
2022-09-15T15:44:54.672Z,66.32
2022-09-15T15:48:01.170Z,67.44
2022-09-15T15:51:06.089Z,67.87
2022-09-15T15:54:05.098Z,67.58
2022-09-15T15:57:10.795Z,67.96
2022-09-15T16:00:20.904Z,68.22
2022-09-15T16:03:22.673Z,68.13
2022-09-15T16:06:27.901Z,68.39
2022-09-15T16:09:33.246Z,69.31
2022-09-15T16:12:38.104Z,69.90
2022-09-15T16:15:43.861Z,70.80
2022-09-15T16:18:49.865Z,70.95
2022-09-15T16:21:57.041Z,71.23
2022-09-15T16:25:02.124Z,71.37
2022-09-15T16:28:07.283Z,71.74
2022-09-15T16:31:12.712Z,71.74
2022-09-15T16:34:19.589Z,71.97
2022-09-15T16:37:25.945Z,71.93
2022-09-15T16:40:32.239Z,72.51
2022-09-15T16:43:39.045Z,73.40
2022-09-15T16:46:44.566Z,73.18
2022-09-15T16:49:50.231Z,73.06
2022-09-15T16:52:57.732Z,72.49
2022-09-15T16:56:08.901Z,73.07
2022-09-15T16:59:15.349Z,72.61
2022-09-15T17:02:18.435Z,71.82
2022-09-15T17:05:04.330Z,72.59
2022-09-15T17:07:55.913Z,72.83
2022-09-15T17:10:48.784Z,73.58
2022-09-15T17:13:54.583Z,73.56
2022-09-15T17:17:00.932Z,73.14
2022-09-15T17:20:06.603Z,72.48
2022-09-15T17:23:12.430Z,73.11
2022-09-15T17:26:21.981Z,74.16
2022-09-15T17:29:28.380Z,74.57
2022-09-15T17:32:35.018Z,74.35
2022-09-15T17:35:41.804Z,73.75
2022-09-15T17:38:47.458Z,73.86
2022-09-15T17:41:54.309Z,74.91
2022-09-15T17:45:09.437Z,74.97
2022-09-15T17:48:15.780Z,74.72
2022-09-15T17:51:16.766Z,73.95
2022-09-15T17:54:13.042Z,73.88
2022-09-15T17:57:16.389Z,73.40
2022-09-15T18:00:22.160Z,72.40
2022-09-15T18:03:50.058Z,72.35
2022-09-15T18:06:56.209Z,72.70
2022-09-15T18:10:01.937Z,73.07
2022-09-15T18:13:07.649Z,73.04
2022-09-15T18:16:15.765Z,72.21
2022-09-15T18:19:21.751Z,71.83
2022-09-15T18:22:28.640Z,72.18
2022-09-15T18:25:44.350Z,72.80
2022-09-15T18:28:50.943Z,73.65
2022-09-15T18:31:57.290Z,73.74
2022-09-15T18:35:04.203Z,73.80
2022-09-15T18:38:11.612Z,74.01
2022-09-15T18:41:18.993Z,73.89
2022-09-15T18:44:23.806Z,74.05
2022-09-15T18:47:29.519Z,73.66
2022-09-15T18:50:37.049Z,73.04
2022-09-15T18:53:43.901Z,73.19
2022-09-15T18:56:50.685Z,73.35
2022-09-15T18:59:57.534Z,73.81
2022-09-15T19:03:04.790Z,73.56
2022-09-15T19:06:09.962Z,73.91
2022-09-15T19:09:10.263Z,73.82
2022-09-15T19:12:16.392Z,74.47
2022-09-15T19:15:24.316Z,74.49
2022-09-15T19:18:30.332Z,75.19
2022-09-15T19:21:36.094Z,75.44
2022-09-15T19:24:41.862Z,75.61
2022-09-15T19:27:47.620Z,75.19
2022-09-15T19:30:53.456Z,74.65
2022-09-15T19:33:58.933Z,74.31
2022-09-15T19:37:08.236Z,74.67
2022-09-15T19:40:14.553Z,74.72
2022-09-15T19:43:20.632Z,74.50
2022-09-15T19:46:31.736Z,74.60
2022-09-15T19:49:38.353Z,74.68
2022-09-15T19:52:44.632Z,74.54
2022-09-15T19:55:50.118Z,74.92
2022-09-15T19:58:56.894Z,74.94
2022-09-15T20:02:03.219Z,74.71
2022-09-15T20:05:10.099Z,74.50
2022-09-15T20:08:19.041Z,74.46
2022-09-15T20:11:24.816Z,74.13
2022-09-15T20:14:31.851Z,74.34
2022-09-15T20:17:38.541Z,73.82
2022-09-15T20:20:44.308Z,73.14
2022-09-15T20:23:52.041Z,73.40
2022-09-15T20:26:58.579Z,73.80
2022-09-15T20:30:04.806Z,73.58
2022-09-15T20:33:10.989Z,74.13
2022-09-15T20:36:20.043Z,74.48
2022-09-15T20:39:28.864Z,75.05
2022-09-15T20:42:34.389Z,74.79
2022-09-15T20:45:40.401Z,75.18
2022-09-15T20:48:47.856Z,75.27
2022-09-15T20:51:53.209Z,74.82
2022-09-15T20:54:59.958Z,75.22
2022-09-15T20:58:05.602Z,75.23
2022-09-15T21:01:23.687Z,75.53
2022-09-15T21:04:30.928Z,75.19
2022-09-15T21:07:38.646Z,75.21
2022-09-15T21:10:45.759Z,75.36
2022-09-15T21:13:54.342Z,75.32
2022-09-15T21:16:59.580Z,74.92
2022-09-15T21:20:04.219Z,76.24
2022-09-15T21:23:10.815Z,76.41
2022-09-15T21:26:18.471Z,76.45
2022-09-15T21:29:23.696Z,76.40
2022-09-15T21:32:28.684Z,76.71
2022-09-15T21:35:34.339Z,77.43
2022-09-15T21:38:40.095Z,78.12
2022-09-15T21:41:46.711Z,77.88
2022-09-15T21:44:52.070Z,77.95
2022-09-15T21:47:56.914Z,77.75
2022-09-15T21:51:07.476Z,77.38
2022-09-15T21:54:13.216Z,77.40
2022-09-15T21:57:18.157Z,77.40
2022-09-15T22:00:24.852Z,77.55
2022-09-15T22:03:30.293Z,76.70
2022-09-15T22:06:40.873Z,76.59
2022-09-15T22:09:46.174Z,77.50
2022-09-15T22:12:52.679Z,77.37
2022-09-15T22:15:58.818Z,77.55
2022-09-15T22:19:04.777Z,77.36
2022-09-15T22:22:10.341Z,77.60
2022-09-15T22:25:21.707Z,77.24
2022-09-15T22:28:23.454Z,76.88
2022-09-15T22:31:32.118Z,76.58
2022-09-15T22:34:38.076Z,77.48
2022-09-15T22:37:44.137Z,77.15
2022-09-15T22:40:49.515Z,77.21
2022-09-15T22:43:57.499Z,76.80
2022-09-15T22:47:04.381Z,76.75
2022-09-15T22:50:10.197Z,76.45
2022-09-15T22:53:16.352Z,76.76
2022-09-15T22:56:30.317Z,76.54
2022-09-15T22:59:35.720Z,76.48
2022-09-15T23:02:36.586Z,76.50
2022-09-15T23:05:42.408Z,76.50
2022-09-15T23:08:48.244Z,76.30
2022-09-15T23:11:55.655Z,76.09
2022-09-15T23:15:02.496Z,75.95
2022-09-15T23:18:08.134Z,75.43
2022-09-15T23:21:19.395Z,76.01
2022-09-15T23:24:25.898Z,75.71
2022-09-15T23:27:24.768Z,76.08
2022-09-15T23:30:31.874Z,75.99
2022-09-15T23:33:31.648Z,75.59
2022-09-15T23:36:37.886Z,75.20
2022-09-15T23:39:42.639Z,75.98
2022-09-15T23:42:48.470Z,76.27
2022-09-15T23:45:53.955Z,76.27
2022-09-15T23:49:00.270Z,76.35
2022-09-15T23:52:06.474Z,76.86
2022-09-15T23:55:11.971Z,76.86
2022-09-15T23:58:18.153Z,76.78
